Oslo Bulk 1 — 9V8766 — position and weather

sailwx.info

Track history (hours):
 
Tides and Currents Weather Stations Pressure Air Temp Water Temp Dewpoint Dewpoint Depression Visibility Wind Speed Wind Dir Waves Ship Positions

Oslo Bulk 1

Last reported at 2015-Sep-02 03:14 UTC. Time now 2015-Sep-05 07:53 UTC.
Position S 25°53' E 153°39'.

Length 108 m; draft 6.6 m.

Type: Ship. MMSI: 564010000.

Date/timePositionNaut miles runAvg speedWind from/ knotsBaromVisibWave heightAir tempDewpointWater temp
2015-Sep-02 03:14S 25°53' E 153°39'1810.5
2015-Sep-02 01:33S 26°11' E 153°40'2411.0
2015-Sep-01 23:20S 26°35' E 153°40'911.1
2015-Sep-01 22:34S 26°44' E 153°41'1111.0
2015-Sep-01 21:33S 26°55' E 153°42'1110.8
2015-Sep-01 20:33S 27°06' E 153°42'1111.5
2015-Sep-01 19:33S 27°17' E 153°43'1111.4
2015-Sep-01 18:33S 27°28' E 153°44'1111.2
2015-Sep-01 17:33S 27°39' E 153°46'1111.1
2015-Sep-01 16:33S 27°50' E 153°48'1111.0
2015-Sep-01 15:33S 28°01' E 153°49'1110.6
2015-Sep-01 14:33S 28°12' E 153°49'268 9.2
2015-Aug-31 09:31S 32°34' E 152°46'9 9.3
2015-Aug-31 08:33S 32°43' E 152°41'10 9.0
2015-Aug-31 07:26S 32°52' E 152°37'11 9.0
2015-Aug-31 06:13S 33°02' E 152°32'6 9.0
2015-Aug-31 05:31S 33°08' E 152°29'271 9.5
2015-Aug-30 01:06S 37°17' E 150°20'611.2
2015-Aug-30 00:33S 37°23' E 150°17'2110.5
2015-Aug-29 22:32S 37°42' E 150°05'1110.8
2015-Aug-29 21:32S 37°49' E 149°55'1211.7
2015-Aug-29 20:33S 37°56' E 149°44'18210.4
2015-Aug-29 03:05S 39°17' E 146°16'610.5
2015-Aug-29 02:33S 39°17' E 146°08'1010.1
2015-Aug-29 01:33S 39°17' E 145°55'10 9.8
2015-Aug-29 00:33S 39°17' E 145°43'  
Track history (hours):
 
Tides and Currents Weather Stations Pressure Air Temp Water Temp Dewpoint Dewpoint Depression Visibility Wind Speed Wind Dir Waves Ship Positions

Oslo Bulk 1

Last reported at 2015-Sep-02 03:14 UTC. Time now 2015-Sep-05 07:53 UTC.
Position S 25°53' E 153°39'.

Length 108 m; draft 6.6 m.

Type: Ship. MMSI: 564010000.

Date/timePositionNaut miles runAvg speedWind from/ knotsBaromVisibWave heightAir tempDewpointWater temp
2015-Sep-02 03:14S 25°53' E 153°39'1810.5
2015-Sep-02 01:33S 26°11' E 153°40'2411.0
2015-Sep-01 23:20S 26°35' E 153°40'911.1
2015-Sep-01 22:34S 26°44' E 153°41'1111.0
2015-Sep-01 21:33S 26°55' E 153°42'1110.8
2015-Sep-01 20:33S 27°06' E 153°42'1111.5
2015-Sep-01 19:33S 27°17' E 153°43'1111.4
2015-Sep-01 18:33S 27°28' E 153°44'1111.2
2015-Sep-01 17:33S 27°39' E 153°46'1111.1
2015-Sep-01 16:33S 27°50' E 153°48'1111.0
2015-Sep-01 15:33S 28°01' E 153°49'1110.6
2015-Sep-01 14:33S 28°12' E 153°49'268 9.2
2015-Aug-31 09:31S 32°34' E 152°46'9 9.3
2015-Aug-31 08:33S 32°43' E 152°41'10 9.0
2015-Aug-31 07:26S 32°52' E 152°37'11 9.0
2015-Aug-31 06:13S 33°02' E 152°32'6 9.0
2015-Aug-31 05:31S 33°08' E 152°29'271 9.5
2015-Aug-30 01:06S 37°17' E 150°20'611.2
2015-Aug-30 00:33S 37°23' E 150°17'2110.5
2015-Aug-29 22:32S 37°42' E 150°05'1110.8
2015-Aug-29 21:32S 37°49' E 149°55'1211.7
2015-Aug-29 20:33S 37°56' E 149°44'18210.4
2015-Aug-29 03:05S 39°17' E 146°16'610.5
2015-Aug-29 02:33S 39°17' E 146°08'1010.1
2015-Aug-29 01:33S 39°17' E 145°55'10 9.8
2015-Aug-29 00:33S 39°17' E 145°43'  

Dump ship's entire track history